Terminal Aerodrome Forecast
Issued by NWS

Home | Current Version | Previous Version | Text Only | Print | Product List | Glossary On
Versions: 1 2 3 4 5 6 7 8 9 10 11 12 13 14 15 16 17 18 19 20 21
000
FTUS43 KDLH 132341
TAFBRD
TAF
KBRD 132341Z 1400/1424 VRB03KT P6SM SKC
     FM141400 18009KT 4SM -SN OVC025
     FM141700 19010KT 1SM -SN OVC010
     FM142300 24007KT 4SM -SN OVC012=

USA.gov is the U.S. government's official web portal to all federal, state and local government web resources and services.